createdAt,value
2022-08-01T00:01:34.387Z,16.60
2022-08-01T00:04:03.996Z,18.90
2022-08-01T00:06:32.990Z,17.10
2022-08-01T00:09:01.576Z,18.20
2022-08-01T00:11:30.380Z,16.90
2022-08-01T00:13:59.221Z,16.50
2022-08-01T00:16:27.843Z,18.10
2022-08-01T00:18:56.939Z,14.60
2022-08-01T00:21:25.729Z,15.90
2022-08-01T00:23:54.312Z,15.70
2022-08-01T00:26:22.998Z,16.30
2022-08-01T00:28:51.693Z,17.10
2022-08-01T00:31:21.345Z,18.40
2022-08-01T00:33:50.288Z,14.80
2022-08-01T00:36:18.976Z,15.00
2022-08-01T00:38:47.766Z,16.00
2022-08-01T00:41:16.347Z,19.30
2022-08-01T00:43:45.139Z,20.50
2022-08-01T00:46:13.727Z,19.20
2022-08-01T00:48:42.677Z,15.60
2022-08-01T00:51:11.980Z,13.50
2022-08-01T00:53:51.621Z,14.10
2022-08-01T00:56:22.632Z,17.50
2022-08-01T00:58:51.190Z,16.90
2022-08-01T01:01:21.969Z,16.20
2022-08-01T01:04:00.374Z,17.90
2022-08-01T01:07:07.530Z,19.50
2022-08-01T01:10:02.247Z,20.30
2022-08-01T01:12:49.662Z,17.80
2022-08-01T01:15:31.877Z,17.90
2022-08-01T01:18:26.047Z,22.10
2022-08-01T01:21:18.592Z,21.00
2022-08-01T01:23:58.945Z,20.90
2022-08-01T01:27:03.332Z,20.00
2022-08-01T01:30:04.383Z,21.00
2022-08-01T01:32:37.208Z,30.50
2022-08-01T01:35:18.899Z,20.70
2022-08-01T01:37:51.450Z,81.70
2022-08-01T01:40:22.298Z,140.90
2022-08-01T01:42:53.110Z,162.10
2022-08-01T01:45:24.878Z,143.30
2022-08-01T01:47:56.473Z,172.20
2022-08-01T01:52:56.666Z,50.40
2022-08-01T01:55:27.764Z,41.20
2022-08-01T01:57:58.189Z,22.50
2022-08-01T02:00:28.845Z,26.80
2022-08-01T02:02:59.014Z,22.70
2022-08-01T02:05:29.581Z,29.20
2022-08-01T02:07:59.435Z,58.80
2022-08-01T02:10:31.464Z,221.10
2022-08-01T02:15:34.534Z,206.80
2022-08-01T02:18:03.565Z,288.10
2022-08-01T02:20:32.643Z,386.30
2022-08-01T02:23:13.645Z,202.60
2022-08-01T02:26:10.842Z,179.30
2022-08-01T02:28:55.946Z,138.10
2022-08-01T02:31:25.042Z,86.00
2022-08-01T02:34:00.232Z,149.90
2022-08-01T02:36:33.242Z,112.60
2022-08-01T02:39:09.554Z,80.80
2022-08-01T02:41:43.536Z,61.60
2022-08-01T02:44:20.795Z,69.30
2022-08-01T02:46:54.140Z,54.30
2022-08-01T02:49:25.358Z,54.20
2022-08-01T02:51:57.096Z,32.90
2022-08-01T02:54:28.001Z,33.60
2022-08-01T02:56:58.605Z,39.20
2022-08-01T02:59:30.044Z,34.00
2022-08-01T03:04:34.603Z,35.70
2022-08-01T03:07:05.613Z,42.50
2022-08-01T03:09:39.352Z,70.70
2022-08-01T03:12:14.022Z,42.70
2022-08-01T03:14:44.451Z,50.80
2022-08-01T03:17:14.029Z,76.00
2022-08-01T03:19:46.489Z,87.60
2022-08-01T03:22:16.259Z,115.10
2022-08-01T03:24:51.015Z,147.90
2022-08-01T03:27:22.158Z,107.90
2022-08-01T03:29:52.676Z,85.60
2022-08-01T03:32:23.544Z,153.90
2022-08-01T03:34:52.337Z,234.60
2022-08-01T03:37:27.508Z,78.90
2022-08-01T03:40:03.684Z,134.30
2022-08-01T03:42:39.016Z,199.00
2022-08-01T03:45:16.081Z,175.90
2022-08-01T03:47:48.435Z,109.60
2022-08-01T03:50:20.296Z,79.80
2022-08-01T03:52:51.618Z,96.40
2022-08-01T03:57:52.770Z,194.30
2022-08-01T04:00:22.115Z,149.60
2022-08-01T04:02:52.293Z,174.50
2022-08-01T04:05:21.100Z,62.00
2022-08-01T04:07:58.006Z,56.90
2022-08-01T04:10:27.420Z,144.90
2022-08-01T04:12:56.606Z,176.10
2022-08-01T04:15:25.077Z,72.60
2022-08-01T04:17:55.430Z,37.50
2022-08-01T04:20:24.307Z,51.40
2022-08-01T04:22:53.505Z,119.20
2022-08-01T04:25:35.515Z,118.80
2022-08-01T04:28:08.902Z,36.30
2022-08-01T04:30:40.202Z,34.20
2022-08-01T04:33:11.254Z,34.70
2022-08-01T04:36:02.639Z,33.00
2022-08-01T04:38:33.296Z,23.90
2022-08-01T04:41:08.703Z,27.90
2022-08-01T04:43:39.593Z,25.90
2022-08-01T04:46:09.559Z,26.00
2022-08-01T04:48:40.282Z,20.10
2022-08-01T04:51:19.208Z,18.20
2022-08-01T04:53:47.794Z,23.40
2022-08-01T04:56:17.034Z,13.90
2022-08-01T04:58:46.400Z,14.80
2022-08-01T05:01:15.137Z,11.30
2022-08-01T05:03:45.410Z,10.00
2022-08-01T05:06:14.303Z,12.70
2022-08-01T05:08:42.784Z,11.70
2022-08-01T05:11:12.700Z,10.80
2022-08-01T05:13:42.104Z,8.30
2022-08-01T05:16:10.586Z,11.90
2022-08-01T05:18:39.276Z,11.40
2022-08-01T05:21:09.295Z,14.20
2022-08-01T05:23:42.918Z,8.50
2022-08-01T05:26:14.728Z,9.90
2022-08-01T05:31:12.851Z,7.60
2022-08-01T05:33:41.432Z,10.50
2022-08-01T05:36:10.038Z,7.90
2022-08-01T05:38:38.704Z,8.50
2022-08-01T05:41:07.524Z,7.70
2022-08-01T05:43:36.348Z,6.30
2022-08-01T05:46:05.181Z,7.10
2022-08-01T05:48:33.965Z,13.30
2022-08-01T05:51:02.556Z,11.80
2022-08-01T05:53:31.273Z,7.30
2022-08-01T05:56:00.028Z,8.80
2022-08-01T05:58:28.716Z,8.50
2022-08-01T06:00:57.920Z,13.10
2022-08-01T06:03:27.015Z,10.30
2022-08-01T06:05:55.496Z,9.00
2022-08-01T06:08:24.287Z,8.40
2022-08-01T06:10:53.012Z,6.80
2022-08-01T06:13:21.802Z,8.80
2022-08-01T06:15:50.819Z,10.90
2022-08-01T06:18:19.975Z,6.90
2022-08-01T06:20:48.847Z,9.60
2022-08-01T06:23:31.675Z,9.20
2022-08-01T06:26:02.200Z,17.30
2022-08-01T06:28:31.296Z,8.70
2022-08-01T06:31:00.824Z,10.30
2022-08-01T06:33:30.060Z,11.10
2022-08-01T06:35:58.785Z,9.00
2022-08-01T06:38:27.479Z,10.40
2022-08-01T06:40:56.369Z,13.70
2022-08-01T06:43:25.322Z,13.90
2022-08-01T06:45:53.847Z,12.50
2022-08-01T06:48:22.390Z,11.00
2022-08-01T06:51:09.248Z,12.50
2022-08-01T06:53:39.578Z,9.20
2022-08-01T06:56:10.017Z,15.80
2022-08-01T06:58:39.095Z,12.10
2022-08-01T07:01:08.620Z,14.30
2022-08-01T07:03:54.405Z,11.40
2022-08-01T07:06:25.454Z,15.30
2022-08-01T07:08:55.044Z,14.20
2022-08-01T07:11:25.108Z,14.20
2022-08-01T07:13:53.618Z,13.10
2022-08-01T07:16:23.483Z,31.70
2022-08-01T07:18:52.762Z,10.60
2022-08-01T07:21:40.258Z,14.60
2022-08-01T07:24:12.847Z,11.90
2022-08-01T07:26:52.703Z,12.40
2022-08-01T07:29:27.452Z,11.70
2022-08-01T07:31:57.470Z,10.80
2022-08-01T07:34:26.822Z,13.00
2022-08-01T07:36:55.766Z,26.60
2022-08-01T07:39:24.348Z,8.40
2022-08-01T07:42:07.167Z,10.30
2022-08-01T07:44:37.806Z,8.30
2022-08-01T07:47:07.264Z,9.20
2022-08-01T07:49:40.463Z,9.50
2022-08-01T07:52:10.136Z,8.40
2022-08-01T07:54:38.900Z,5.90
2022-08-01T07:57:08.408Z,7.10
2022-08-01T07:59:37.469Z,8.50
2022-08-01T08:02:06.477Z,8.70
2022-08-01T08:04:35.390Z,6.40
2022-08-01T08:07:04.954Z,8.50
2022-08-01T08:09:37.203Z,6.50
2022-08-01T08:12:08.341Z,7.20
2022-08-01T08:14:37.921Z,9.10
2022-08-01T08:17:07.430Z,7.70
2022-08-01T08:19:39.138Z,7.20
2022-08-01T08:22:09.653Z,5.20
2022-08-01T08:27:16.235Z,9.40
2022-08-01T08:29:45.271Z,5.20
2022-08-01T08:32:13.813Z,5.60
2022-08-01T08:34:42.989Z,9.50
2022-08-01T08:37:12.292Z,13.90
2022-08-01T08:39:42.406Z,14.60
2022-08-01T08:42:14.476Z,7.60
2022-08-01T08:44:44.634Z,8.40
2022-08-01T08:47:19.614Z,6.20
2022-08-01T08:49:50.977Z,6.40
2022-08-01T08:54:51.601Z,6.00
2022-08-01T08:57:22.184Z,7.40
2022-08-01T09:02:22.717Z,5.50
2022-08-01T09:04:52.231Z,4.50
2022-08-01T09:07:20.911Z,6.10
2022-08-01T09:09:51.638Z,6.30
2022-08-01T09:12:21.628Z,6.10
2022-08-01T09:14:51.600Z,5.60
2022-08-01T09:17:21.266Z,6.80
2022-08-01T09:19:55.640Z,7.50
2022-08-01T09:22:26.758Z,10.70
2022-08-01T09:25:12.161Z,9.10
2022-08-01T09:27:44.157Z,15.20
2022-08-01T09:30:17.276Z,9.40
2022-08-01T09:32:58.497Z,4.80
2022-08-01T09:35:43.720Z,5.80
2022-08-01T09:38:16.974Z,4.10
2022-08-01T09:41:01.507Z,3.90
2022-08-01T09:43:32.585Z,6.20
2022-08-01T09:46:12.587Z,5.00
2022-08-01T09:49:07.464Z,4.80
2022-08-01T09:52:00.090Z,8.50
2022-08-01T09:54:33.755Z,5.90
2022-08-01T09:57:17.153Z,4.70
2022-08-01T09:59:58.358Z,5.50
2022-08-01T10:02:31.162Z,5.90
2022-08-01T10:05:08.232Z,8.60
2022-08-01T10:07:58.094Z,4.70
2022-08-01T10:10:28.879Z,10.30
2022-08-01T10:12:59.993Z,7.90
2022-08-01T10:18:16.514Z,15.40
2022-08-01T10:20:56.373Z,7.50
2022-08-01T10:23:40.443Z,7.00
2022-08-01T10:26:13.310Z,9.80
2022-08-01T10:28:46.097Z,49.00
2022-08-01T10:31:15.497Z,22.70
2022-08-01T10:33:51.417Z,7.50
2022-08-01T10:36:22.951Z,12.00
2022-08-01T10:38:56.554Z,7.40
2022-08-01T10:41:27.387Z,8.60
2022-08-01T10:43:56.941Z,9.50
2022-08-01T10:46:26.567Z,8.40
2022-08-01T10:49:08.664Z,11.70
2022-08-01T10:51:52.500Z,12.50
2022-08-01T10:54:27.099Z,11.60
2022-08-01T10:57:00.891Z,7.80
2022-08-01T10:59:49.580Z,5.90
2022-08-01T11:02:32.631Z,47.10
2022-08-01T11:05:21.077Z,7.30
2022-08-01T11:07:56.624Z,15.60
2022-08-01T11:10:46.713Z,15.20
2022-08-01T11:13:15.914Z,10.60
2022-08-01T11:15:50.160Z,9.00
2022-08-01T11:18:30.818Z,12.50
2022-08-01T11:21:59.232Z,8.40
2022-08-01T11:23:55.473Z,4.40
2022-08-01T11:26:28.890Z,6.20
2022-08-01T11:29:21.971Z,5.80
2022-08-01T11:31:53.052Z,4.30
2022-08-01T11:35:02.174Z,4.60
2022-08-01T11:37:31.092Z,7.00
2022-08-01T11:40:22.901Z,4.20
2022-08-01T11:43:17.769Z,8.20
2022-08-01T11:45:57.524Z,5.30
2022-08-01T11:48:29.046Z,3.90
2022-08-01T11:51:02.222Z,6.90
2022-08-01T11:53:31.440Z,5.20
2022-08-01T11:56:01.237Z,6.00
2022-08-01T11:58:31.497Z,3.60
2022-08-01T12:01:00.804Z,4.80
2022-08-01T12:03:34.380Z,10.00
2022-08-01T12:06:03.613Z,7.40
2022-08-01T12:08:36.139Z,4.30
2022-08-01T12:11:07.181Z,3.70
2022-08-01T12:13:44.552Z,4.30
2022-08-01T12:16:13.785Z,6.90
2022-08-01T12:18:44.358Z,5.50
2022-08-01T12:21:13.057Z,11.10
2022-08-01T12:23:41.835Z,5.00
2022-08-01T12:26:29.142Z,26.70
2022-08-01T12:28:59.692Z,7.30
2022-08-01T12:31:35.755Z,8.30
2022-08-01T12:34:26.773Z,13.90
2022-08-01T12:37:00.890Z,6.30
2022-08-01T12:39:40.044Z,5.80
2022-08-01T12:42:11.785Z,4.80
2022-08-01T12:44:42.204Z,15.40
2022-08-01T12:47:11.893Z,39.50
2022-08-01T12:49:44.383Z,24.10
2022-08-01T12:52:13.992Z,15.90
2022-08-01T12:55:10.032Z,5.40
2022-08-01T12:57:41.706Z,4.70
2022-08-01T13:00:31.357Z,4.10
2022-08-01T13:03:18.972Z,15.60
2022-08-01T13:05:49.741Z,4.50
2022-08-01T13:08:30.397Z,6.70
2022-08-01T13:11:16.972Z,8.50
2022-08-01T13:13:49.082Z,6.70
2022-08-01T13:16:48.813Z,5.50
2022-08-01T13:19:15.792Z,27.00
2022-08-01T13:21:58.315Z,6.70
2022-08-01T13:24:30.795Z,7.10
2022-08-01T13:27:01.990Z,5.50
2022-08-01T13:29:44.126Z,3.40
2022-08-01T13:32:29.792Z,6.00
2022-08-01T13:35:06.955Z,4.00
2022-08-01T13:37:37.022Z,8.00
2022-08-01T13:40:08.802Z,28.20
2022-08-01T13:42:38.440Z,4.10
2022-08-01T13:45:14.781Z,23.20
2022-08-01T13:48:12.238Z,8.20
2022-08-01T13:50:33.680Z,5.20
2022-08-01T13:53:02.413Z,31.60
2022-08-01T13:55:34.568Z,3.20
2022-08-01T13:58:04.291Z,2.80
2022-08-01T14:00:32.841Z,4.50
2022-08-01T14:03:01.314Z,6.40
2022-08-01T14:05:31.229Z,6.20
2022-08-01T14:07:59.713Z,12.80
2022-08-01T14:10:28.504Z,3.50
2022-08-01T14:12:59.057Z,3.20
2022-08-01T14:15:38.215Z,6.50
2022-08-01T14:18:10.549Z,4.40
2022-08-01T14:20:40.649Z,5.40
2022-08-01T14:23:10.581Z,3.80
2022-08-01T14:26:01.592Z,3.00
2022-08-01T14:28:29.806Z,2.90
2022-08-01T14:30:59.122Z,4.70
2022-08-01T14:33:28.366Z,3.90
2022-08-01T14:36:06.453Z,6.60
2022-08-01T14:38:46.450Z,3.10
2022-08-01T14:41:16.382Z,3.00
2022-08-01T14:43:44.938Z,4.20
2022-08-01T14:46:14.202Z,2.50
2022-08-01T14:48:43.329Z,3.00
2022-08-01T14:51:12.014Z,16.90
2022-08-01T14:53:46.981Z,1.70
2022-08-01T14:56:20.042Z,4.40
2022-08-01T14:58:48.729Z,3.20
2022-08-01T15:01:19.190Z,7.40
2022-08-01T15:03:49.393Z,4.20
2022-08-01T15:06:18.783Z,6.70
2022-08-01T15:08:47.226Z,2.20
2022-08-01T15:11:16.159Z,4.80
2022-08-01T15:13:45.358Z,2.60
2022-08-01T15:16:13.840Z,2.80
2022-08-01T15:18:43.347Z,3.10
2022-08-01T15:21:29.242Z,2.60
2022-08-01T15:24:04.547Z,3.50
2022-08-01T15:26:33.537Z,2.00
2022-08-01T15:29:02.777Z,2.90
2022-08-01T15:31:31.669Z,3.40
2022-08-01T15:34:01.821Z,4.30
2022-08-01T15:36:30.987Z,1.70
2022-08-01T15:39:01.210Z,3.70
2022-08-01T15:41:29.695Z,4.60
2022-08-01T15:43:58.955Z,1.90
2022-08-01T15:46:27.788Z,4.70
2022-08-01T15:48:56.663Z,3.80
2022-08-01T15:51:25.468Z,2.60
2022-08-01T15:53:54.293Z,3.20
2022-08-01T15:56:22.843Z,2.00
2022-08-01T15:58:51.940Z,3.30
2022-08-01T16:01:22.554Z,4.10
2022-08-01T16:03:51.095Z,3.10
2022-08-01T16:06:19.862Z,4.50
2022-08-01T16:08:48.737Z,3.80
2022-08-01T16:11:17.835Z,2.80
2022-08-01T16:13:48.939Z,2.40
2022-08-01T16:16:17.873Z,2.70
2022-08-01T16:18:46.957Z,6.00
2022-08-01T16:21:25.549Z,3.10
2022-08-01T16:23:54.177Z,2.30
2022-08-01T16:26:28.230Z,3.20
2022-08-01T16:28:58.478Z,3.40
2022-08-01T16:31:33.590Z,27.30
2022-08-01T16:34:14.569Z,4.90
2022-08-01T16:37:43.561Z,10.80
2022-08-01T16:40:22.291Z,3.50
2022-08-01T16:43:03.585Z,2.20
2022-08-01T16:45:48.661Z,11.30
2022-08-01T16:48:27.681Z,3.00
2022-08-01T16:51:10.361Z,2.50
2022-08-01T16:53:46.625Z,2.40
2022-08-01T16:56:30.683Z,4.90
2022-08-01T16:59:10.685Z,3.10
2022-08-01T17:02:00.333Z,2.80
2022-08-01T17:04:40.772Z,2.60
2022-08-01T17:07:24.426Z,2.90
2022-08-01T17:10:01.822Z,2.70
2022-08-01T17:12:46.548Z,3.80
2022-08-01T17:15:24.927Z,3.20
2022-08-01T17:18:07.631Z,2.30
2022-08-01T17:20:48.432Z,2.20
2022-08-01T17:23:31.741Z,15.70
2022-08-01T17:26:09.025Z,21.90
2022-08-01T17:28:52.806Z,9.60
2022-08-01T17:31:34.238Z,7.60
2022-08-01T17:34:15.971Z,9.90
2022-08-01T17:36:52.597Z,3.80
2022-08-01T17:39:36.350Z,4.30
2022-08-01T17:42:20.006Z,8.10
2022-08-01T17:45:03.202Z,4.10
2022-08-01T17:47:50.864Z,4.10
2022-08-01T17:50:32.457Z,4.80
2022-08-01T17:53:08.207Z,8.50
2022-08-01T17:55:55.757Z,6.40
2022-08-01T17:58:51.136Z,5.50
2022-08-01T18:01:32.013Z,5.30
2022-08-01T18:04:12.472Z,6.30
2022-08-01T18:06:59.350Z,8.90
2022-08-01T18:09:45.541Z,6.60
2022-08-01T18:12:26.445Z,6.70
2022-08-01T18:15:09.052Z,4.40
2022-08-01T18:17:51.892Z,6.20
2022-08-01T18:20:28.222Z,8.10
2022-08-01T18:23:11.184Z,6.20
2022-08-01T18:25:52.541Z,4.50
2022-08-01T18:28:40.980Z,10.20
2022-08-01T18:31:21.947Z,13.30
2022-08-01T18:34:03.698Z,16.90
2022-08-01T18:36:47.165Z,11.90
2022-08-01T18:39:26.814Z,11.80
2022-08-01T18:42:10.431Z,8.30
2022-08-01T18:44:53.564Z,11.20
2022-08-01T18:48:29.865Z,6.80
2022-08-01T18:51:58.351Z,9.30
2022-08-01T18:55:32.068Z,5.60
2022-08-01T18:59:00.657Z,8.40
2022-08-01T19:02:28.944Z,4.80
2022-08-01T19:05:26.154Z,7.80
2022-08-01T19:08:06.033Z,6.10
2022-08-01T19:14:04.928Z,6.80
2022-08-01T19:16:34.300Z,4.20
2022-08-01T19:19:07.306Z,3.30
2022-08-01T19:21:41.507Z,6.30
2022-08-01T19:24:22.580Z,8.30
2022-08-01T19:27:05.263Z,7.60
2022-08-01T19:29:39.384Z,5.70
2022-08-01T19:32:10.839Z,9.40
2022-08-01T19:34:50.133Z,13.10
2022-08-01T19:37:21.132Z,8.60
2022-08-01T19:39:52.988Z,12.40
2022-08-01T19:42:24.648Z,10.20
2022-08-01T19:44:53.581Z,28.30
2022-08-01T19:47:22.721Z,11.40
2022-08-01T19:49:51.613Z,9.70
2022-08-01T19:52:26.352Z,8.90
2022-08-01T19:54:56.837Z,9.20
2022-08-01T19:57:35.945Z,8.50
2022-08-01T20:00:23.794Z,5.50
2022-08-01T20:02:57.089Z,4.20
2022-08-01T20:05:26.770Z,9.20
2022-08-01T20:07:55.284Z,5.80
2022-08-01T20:10:24.077Z,5.90
2022-08-01T20:12:53.583Z,6.30
2022-08-01T20:15:22.826Z,5.70
2022-08-01T20:17:51.511Z,5.80
2022-08-01T20:20:20.403Z,7.30
2022-08-01T20:22:49.846Z,6.60
2022-08-01T20:25:20.912Z,5.90
2022-08-01T20:28:49.397Z,5.60
2022-08-01T20:32:14.829Z,6.80
2022-08-01T20:34:43.857Z,10.00
2022-08-01T20:37:14.117Z,5.00
2022-08-01T20:39:45.034Z,11.10
2022-08-01T20:42:14.982Z,7.50
2022-08-01T20:44:45.459Z,5.80
2022-08-01T20:47:14.986Z,6.60
2022-08-01T20:49:44.786Z,8.10
2022-08-01T20:52:15.932Z,7.00
2022-08-01T20:54:45.744Z,5.50
2022-08-01T20:57:26.852Z,7.10
2022-08-01T21:00:02.576Z,7.70
2022-08-01T21:03:03.109Z,6.70
2022-08-01T21:05:36.733Z,9.40
2022-08-01T21:08:14.367Z,6.70
2022-08-01T21:10:46.093Z,7.50
2022-08-01T21:13:21.257Z,6.50
2022-08-01T21:16:22.972Z,6.20
2022-08-01T21:19:10.027Z,6.70
2022-08-01T21:21:48.271Z,7.40
2022-08-01T21:24:19.361Z,5.80
2022-08-01T21:26:48.543Z,7.50
2022-08-01T21:29:19.174Z,5.70
2022-08-01T21:32:09.069Z,20.80
2022-08-01T21:34:40.516Z,8.10
2022-08-01T21:37:10.494Z,4.30
2022-08-01T21:39:43.781Z,6.60
2022-08-01T21:42:18.871Z,4.40
2022-08-01T21:44:48.365Z,5.10
2022-08-01T21:47:17.271Z,5.20
2022-08-01T21:49:45.945Z,5.90
2022-08-01T21:52:21.849Z,4.10
2022-08-01T21:55:03.491Z,5.70
2022-08-01T21:57:45.800Z,7.10
2022-08-01T22:00:25.585Z,5.70
2022-08-01T22:03:17.276Z,8.00
2022-08-01T22:05:51.120Z,6.70
2022-08-01T22:08:44.867Z,5.60
2022-08-01T22:11:18.489Z,6.80
2022-08-01T22:13:47.657Z,5.30
2022-08-01T22:16:16.447Z,7.60
2022-08-01T22:18:46.154Z,5.00
2022-08-01T22:21:16.648Z,5.30
2022-08-01T22:23:45.431Z,7.40
2022-08-01T22:26:14.123Z,7.00
2022-08-01T22:28:45.016Z,9.10
2022-08-01T22:31:16.660Z,7.40
2022-08-01T22:33:47.957Z,7.90
2022-08-01T22:36:17.341Z,6.60
2022-08-01T22:38:45.896Z,6.70
2022-08-01T22:41:19.818Z,8.00
2022-08-01T22:44:15.178Z,8.50
2022-08-01T22:47:07.050Z,5.80
2022-08-01T22:49:48.593Z,6.00
2022-08-01T22:55:04.957Z,7.20
2022-08-01T22:57:44.454Z,8.40
2022-08-01T23:00:15.645Z,8.90
2022-08-01T23:02:47.938Z,8.90
2022-08-01T23:05:22.400Z,7.30
2022-08-01T23:07:57.478Z,9.40
2022-08-01T23:10:27.293Z,7.90
2022-08-01T23:12:56.999Z,7.40
2022-08-01T23:15:26.947Z,7.80
2022-08-01T23:17:56.215Z,8.50
2022-08-01T23:20:25.581Z,7.40
2022-08-01T23:22:55.641Z,8.90
2022-08-01T23:25:25.503Z,11.40
2022-08-01T23:28:05.510Z,10.20
2022-08-01T23:30:36.139Z,8.10
2022-08-01T23:33:04.993Z,9.30
2022-08-01T23:35:35.606Z,7.50
2022-08-01T23:38:10.620Z,7.10
2022-08-01T23:40:39.288Z,7.40
2022-08-01T23:43:17.068Z,9.10
2022-08-01T23:46:02.221Z,11.90
2022-08-01T23:48:34.926Z,7.50
2022-08-01T23:51:06.106Z,8.70
2022-08-01T23:53:38.287Z,7.60
2022-08-01T23:56:07.782Z,8.90
2022-08-01T23:58:36.348Z,7.00
